Kanchanaburi, Thailand
Current Conditions -  °F | °C
As of 7:30 AM on Tuesday 21 Oct 2014 (Local Time) from VTBD Reporting Station
Broken Clouds Broken Clouds  
Wind Chill: 79°   Ceiling: 30000
Heat Index: 83°   Visibility: 5mi
Dew Point: 77°   Wind: 3mph
Humidity: 94%   Direction: 360°N
Pressure: 29.94"   Gusts: NA
Location:  14.02°N, 99.53°E
Report Text: VTBD 210030Z 36003KT 330V040 8000 FEW020 SCT120 BKN300 26/25 Q1014 NOSIG
Loading
Personal Weather Stations






























Interactive Weather Map
Tropical Storm Tracking
New forecast layout! Learn more

10-Day Weather Forecast

Advertisements
Track Severe Weather on mobile